createdAt,value
2018-05-11T00:01:42.902Z,5.83
2018-05-11T00:04:11.238Z,5.83
2018-05-11T00:06:39.606Z,5.43
2018-05-11T00:09:07.865Z,5.80
2018-05-11T00:11:36.125Z,5.43
2018-05-11T00:14:04.396Z,5.87
2018-05-11T00:16:32.658Z,6.17
2018-05-11T00:19:00.954Z,6.40
2018-05-11T00:21:29.223Z,6.20
2018-05-11T00:23:57.489Z,6.30
2018-05-11T00:26:26.129Z,6.50
2018-05-11T00:28:54.379Z,7.30
2018-05-11T00:31:22.650Z,8.40
2018-05-11T00:33:51.142Z,8.27
2018-05-11T00:36:19.411Z,8.07
2018-05-11T00:38:47.674Z,8.30
2018-05-11T00:41:16.003Z,8.77
2018-05-11T00:43:44.375Z,8.77
2018-05-11T00:46:12.743Z,9.63
2018-05-11T00:48:41.012Z,9.30
2018-05-11T00:51:09.371Z,9.33
2018-05-11T00:53:37.585Z,9.70
2018-05-11T00:56:05.871Z,9.17
2018-05-11T00:58:34.335Z,9.20
2018-05-11T01:01:02.739Z,9.77
2018-05-11T01:03:30.986Z,9.73
2018-05-11T01:05:59.491Z,10.07
2018-05-11T01:08:27.753Z,9.67
2018-05-11T01:10:56.038Z,9.47
2018-05-11T01:13:24.312Z,10.13
2018-05-11T01:15:52.584Z,10.30
2018-05-11T01:18:20.875Z,9.40
2018-05-11T01:20:49.152Z,10.10
2018-05-11T01:23:17.927Z,9.83
2018-05-11T01:25:46.190Z,9.67
2018-05-11T01:28:14.487Z,10.17
2018-05-11T01:30:42.762Z,10.40
2018-05-11T01:33:11.040Z,9.90
2018-05-11T01:35:39.369Z,9.50
2018-05-11T01:38:07.641Z,9.90
2018-05-11T01:40:35.954Z,10.27
2018-05-11T01:43:04.241Z,9.47
2018-05-11T01:45:32.577Z,10.03
2018-05-11T01:48:00.839Z,10.43
2018-05-11T01:50:29.109Z,9.97
2018-05-11T01:52:57.747Z,8.80
2018-05-11T01:55:26.050Z,9.23
2018-05-11T01:57:54.516Z,8.40
2018-05-11T02:00:22.788Z,8.53
2018-05-11T02:02:51.046Z,8.30
2018-05-11T02:05:19.331Z,8.17
2018-05-11T02:07:47.615Z,7.97
2018-05-11T02:10:16.826Z,7.43
2018-05-11T02:12:45.099Z,7.87
2018-05-11T02:15:13.495Z,6.97
2018-05-11T02:17:41.749Z,7.23
2018-05-11T02:20:10.211Z,6.50
2018-05-11T02:22:38.482Z,7.00
2018-05-11T02:25:07.026Z,6.87
2018-05-11T02:27:35.289Z,6.83
2018-05-11T02:30:04.347Z,6.40
2018-05-11T02:32:32.620Z,6.63
2018-05-11T02:35:00.884Z,6.67
2018-05-11T02:37:29.156Z,7.10
2018-05-11T02:39:57.586Z,6.73
2018-05-11T02:42:25.962Z,7.30
2018-05-11T02:44:54.231Z,6.40
2018-05-11T02:47:22.481Z,7.10
2018-05-11T02:49:50.754Z,5.97
2018-05-11T02:52:19.153Z,6.80
2018-05-11T02:54:47.417Z,5.90
2018-05-11T02:57:15.688Z,5.80
2018-05-11T02:59:43.981Z,5.57
2018-05-11T03:02:12.242Z,6.53
2018-05-11T03:04:40.856Z,5.63
2018-05-11T03:07:09.098Z,5.80
2018-05-11T03:09:37.485Z,6.37
2018-05-11T03:12:05.747Z,6.00
2018-05-11T03:14:34.245Z,5.60
2018-05-11T03:17:02.510Z,5.83
2018-05-11T03:19:31.025Z,5.20
2018-05-11T03:21:59.295Z,6.40
2018-05-11T03:24:27.552Z,6.40
2018-05-11T03:26:55.857Z,5.53
2018-05-11T03:29:24.106Z,6.17
2018-05-11T03:31:52.643Z,6.03
2018-05-11T03:34:20.914Z,5.97
2018-05-11T03:36:49.360Z,5.70
2018-05-11T03:39:17.649Z,5.80
2018-05-11T03:41:46.127Z,5.80
2018-05-11T03:44:14.409Z,5.43
2018-05-11T03:46:42.672Z,6.17
2018-05-11T03:49:10.939Z,6.10
2018-05-11T03:51:39.323Z,5.70
2018-05-11T03:54:07.615Z,6.00
2018-05-11T03:56:35.858Z,6.17
2018-05-11T03:59:04.167Z,6.60
2018-05-11T04:01:44.278Z,6.10
2018-05-11T04:04:24.281Z,5.60
2018-05-11T04:07:05.390Z,6.03
2018-05-11T04:09:33.659Z,5.20
2018-05-11T04:12:02.412Z,5.50
2018-05-11T04:14:30.668Z,5.53
2018-05-11T04:16:58.953Z,5.53
2018-05-11T04:19:27.682Z,5.57
2018-05-11T04:21:56.130Z,5.67
2018-05-11T04:24:24.398Z,5.20
2018-05-11T04:26:52.815Z,4.83
2018-05-11T04:29:21.848Z,3.77
2018-05-11T04:31:50.253Z,3.33
2018-05-11T04:34:18.527Z,3.00
2018-05-11T04:36:47.037Z,2.90
2018-05-11T04:39:15.314Z,3.00
2018-05-11T04:41:43.783Z,2.30
2018-05-11T04:44:12.067Z,2.73
2018-05-11T04:46:40.718Z,2.40
2018-05-11T04:49:08.987Z,2.50
2018-05-11T04:51:37.279Z,2.60
2018-05-11T04:54:05.686Z,2.20
2018-05-11T04:56:33.930Z,1.87
2018-05-11T04:59:02.214Z,2.40
2018-05-11T05:01:30.472Z,2.20
2018-05-11T05:03:58.873Z,1.60
2018-05-11T05:06:27.287Z,2.40
2018-05-11T05:08:55.572Z,2.23
2018-05-11T05:11:23.906Z,2.40
2018-05-11T05:13:52.178Z,2.00
2018-05-11T05:16:20.479Z,1.57
2018-05-11T05:18:48.751Z,2.00
2018-05-11T05:21:17.014Z,2.00
2018-05-11T05:23:45.290Z,1.50
2018-05-11T05:26:13.669Z,2.80
2018-05-11T05:28:46.266Z,2.17
2018-05-11T05:31:25.168Z,2.30
2018-05-11T05:33:59.383Z,2.40
2018-05-11T05:36:28.655Z,3.57
2018-05-11T05:38:57.077Z,10.40
2018-05-11T05:41:31.209Z,102.47
2018-05-11T05:44:03.633Z,130.40
2018-05-11T05:46:32.730Z,100.83
2018-05-11T05:49:02.075Z,83.60
2018-05-11T05:51:30.406Z,113.77
2018-05-11T05:54:01.223Z,110.50
2018-05-11T05:56:32.608Z,82.17
2018-05-11T05:59:00.898Z,87.53
2018-05-11T06:01:29.418Z,83.97
2018-05-11T06:03:57.776Z,78.10
2018-05-11T06:06:26.064Z,65.20
2018-05-11T06:08:55.115Z,55.83
2018-05-11T06:11:23.396Z,70.27
2018-05-11T06:13:52.029Z,60.07
2018-05-11T06:16:20.317Z,65.33
2018-05-11T06:18:48.652Z,65.20
2018-05-11T06:21:17.048Z,42.57
2018-05-11T06:23:45.415Z,81.93
2018-05-11T06:26:13.788Z,76.70
2018-05-11T06:28:42.097Z,75.10
2018-05-11T06:31:10.563Z,74.83
2018-05-11T06:33:39.827Z,59.07
2018-05-11T06:36:08.258Z,70.07
2018-05-11T06:38:36.539Z,64.50
2018-05-11T06:41:05.591Z,77.70
2018-05-11T06:43:34.008Z,62.97
2018-05-11T06:46:02.316Z,80.90
2018-05-11T06:48:30.789Z,77.67
2018-05-11T06:50:59.100Z,76.00
2018-05-11T06:53:27.422Z,67.17
2018-05-11T06:55:56.529Z,73.20
2018-05-11T06:58:24.765Z,51.63
2018-05-11T07:00:53.258Z,70.63
2018-05-11T07:03:21.656Z,66.00
2018-05-11T07:05:49.950Z,61.60
2018-05-11T07:08:18.411Z,61.07
2018-05-11T07:10:46.787Z,51.90
2018-05-11T07:13:15.083Z,59.13
2018-05-11T07:15:44.528Z,55.13
2018-05-11T07:18:12.832Z,43.17
2018-05-11T07:20:41.215Z,44.53
2018-05-11T07:23:09.491Z,33.30
2018-05-11T07:25:37.991Z,34.03
2018-05-11T07:28:06.245Z,41.00
2018-05-11T07:30:34.522Z,35.60
2018-05-11T07:33:02.805Z,41.70
2018-05-11T07:35:31.079Z,37.10
2018-05-11T07:38:00.020Z,37.07
2018-05-11T07:40:28.273Z,40.50
2018-05-11T07:42:56.556Z,35.50
2018-05-11T07:45:24.831Z,35.53
2018-05-11T07:47:53.110Z,37.17
2018-05-11T07:50:28.848Z,29.07
2018-05-11T07:53:03.545Z,37.30
2018-05-11T07:55:35.067Z,33.50
2018-05-11T07:58:06.665Z,30.97
2018-05-11T08:00:35.127Z,26.77
2018-05-11T08:03:05.426Z,27.20
2018-05-11T08:05:35.182Z,30.57
2018-05-11T08:08:03.794Z,25.03
2018-05-11T08:10:35.574Z,21.40
2018-05-11T08:13:14.150Z,23.27
2018-05-11T08:15:45.776Z,21.60
2018-05-11T08:18:14.117Z,23.20
2018-05-11T08:20:53.413Z,25.10
2018-05-11T08:23:23.779Z,17.77
2018-05-11T08:25:52.059Z,15.67
2018-05-11T08:28:20.350Z,17.27
2018-05-11T08:30:48.613Z,16.60
2018-05-11T08:33:16.907Z,17.33
2018-05-11T08:35:45.364Z,17.40
2018-05-11T08:38:13.786Z,18.07
2018-05-11T08:40:42.080Z,19.40
2018-05-11T08:43:10.347Z,18.23
2018-05-11T08:45:38.632Z,13.03
2018-05-11T08:48:07.063Z,17.67
2018-05-11T08:50:35.358Z,16.97
2018-05-11T08:53:03.770Z,13.60
2018-05-11T08:55:32.872Z,13.90
2018-05-11T08:58:01.135Z,16.90
2018-05-11T09:00:29.415Z,13.43
2018-05-11T09:02:57.794Z,13.83
2018-05-11T09:05:25.978Z,14.47
2018-05-11T09:07:54.627Z,14.17
2018-05-11T09:10:23.030Z,13.57
2018-05-11T09:12:54.125Z,11.60
2018-05-11T09:15:22.748Z,13.83
2018-05-11T09:17:53.146Z,11.87
2018-05-11T09:20:23.003Z,11.23
2018-05-11T09:22:51.434Z,11.60
2018-05-11T09:25:22.947Z,13.13
2018-05-11T09:27:51.966Z,10.07
2018-05-11T09:30:20.266Z,9.50
2018-05-11T09:32:48.530Z,10.90
2018-05-11T09:35:17.014Z,9.50
2018-05-11T09:37:45.338Z,8.90
2018-05-11T09:40:13.606Z,10.77
2018-05-11T09:42:41.913Z,10.47
2018-05-11T09:45:10.180Z,10.30
2018-05-11T09:47:38.568Z,9.03
2018-05-11T09:50:06.841Z,10.80
2018-05-11T09:52:35.914Z,11.93
2018-05-11T09:55:04.214Z,10.70
2018-05-11T09:57:32.475Z,11.10
2018-05-11T10:00:00.774Z,12.63
2018-05-11T10:02:29.156Z,11.40
2018-05-11T10:04:57.450Z,10.83
2018-05-11T10:07:25.848Z,11.40
2018-05-11T10:09:54.052Z,10.00
2018-05-11T10:12:22.339Z,11.20
2018-05-11T10:14:50.619Z,11.57
2018-05-11T10:17:18.907Z,10.63
2018-05-11T10:19:47.175Z,10.30
2018-05-11T10:22:15.548Z,10.83
2018-05-11T10:24:43.863Z,11.07
2018-05-11T10:27:12.910Z,11.00
2018-05-11T10:29:41.178Z,11.03
2018-05-11T10:32:09.466Z,11.23
2018-05-11T10:34:37.769Z,10.63
2018-05-11T10:37:06.123Z,11.60
2018-05-11T10:39:34.419Z,9.87
2018-05-11T10:42:02.906Z,11.73
2018-05-11T10:44:31.175Z,11.90
2018-05-11T10:46:59.676Z,11.93
2018-05-11T10:49:27.934Z,10.67
2018-05-11T10:51:56.233Z,11.37
2018-05-11T10:54:24.597Z,9.87
2018-05-11T10:56:52.851Z,10.73
2018-05-11T10:59:21.126Z,10.13
2018-05-11T11:01:49.416Z,10.10
2018-05-11T11:04:17.695Z,9.77
2018-05-11T11:06:45.969Z,9.87
2018-05-11T11:09:14.231Z,8.77
2018-05-11T11:11:42.531Z,10.20
2018-05-11T11:14:10.886Z,9.70
2018-05-11T11:16:39.153Z,9.50
2018-05-11T11:19:07.672Z,9.13
2018-05-11T11:21:35.960Z,8.07
2018-05-11T11:24:04.432Z,8.97
2018-05-11T11:26:32.697Z,8.27
2018-05-11T11:29:01.174Z,8.97
2018-05-11T11:31:29.537Z,10.10
2018-05-11T11:33:57.984Z,8.63
2018-05-11T11:36:26.282Z,8.03
2018-05-11T11:38:54.698Z,6.87
2018-05-11T11:41:22.977Z,8.20
2018-05-11T11:43:51.435Z,8.90
2018-05-11T11:46:19.699Z,8.60
2018-05-11T11:48:48.195Z,10.60
2018-05-11T11:51:16.466Z,9.73
2018-05-11T11:53:44.866Z,8.40
2018-05-11T11:56:13.348Z,9.77
2018-05-11T11:58:41.713Z,10.03
2018-05-11T12:01:10.006Z,9.53
2018-05-11T12:03:38.268Z,11.70
2018-05-11T12:06:06.612Z,9.80
2018-05-11T12:08:34.867Z,9.97
2018-05-11T12:11:03.310Z,9.43
2018-05-11T12:13:31.626Z,9.60
2018-05-11T12:16:00.067Z,9.50
2018-05-11T12:18:28.356Z,8.83
2018-05-11T12:20:56.824Z,7.77
2018-05-11T12:23:25.120Z,9.33
2018-05-11T12:25:53.580Z,9.00
2018-05-11T12:28:21.978Z,8.30
2018-05-11T12:30:50.331Z,9.20
2018-05-11T12:33:18.742Z,9.13
2018-05-11T12:35:47.018Z,9.20
2018-05-11T12:38:15.294Z,8.60
2018-05-11T12:40:43.598Z,8.47
2018-05-11T12:43:12.641Z,9.33
2018-05-11T12:45:40.890Z,8.60
2018-05-11T12:48:09.226Z,8.30
2018-05-11T12:50:37.699Z,8.17
2018-05-11T12:53:05.984Z,8.80
2018-05-11T12:55:34.245Z,9.03
2018-05-11T12:58:02.514Z,8.33
2018-05-11T13:00:30.889Z,8.50
2018-05-11T13:02:59.157Z,8.40
2018-05-11T13:05:27.653Z,7.93
2018-05-11T13:07:55.930Z,8.10
2018-05-11T13:10:24.214Z,8.23
2018-05-11T13:12:52.607Z,8.50
2018-05-11T13:15:20.894Z,8.10
2018-05-11T13:17:49.333Z,7.30
2018-05-11T13:20:17.607Z,8.57
2018-05-11T13:22:45.874Z,9.80
2018-05-11T13:25:14.358Z,9.10
2018-05-11T13:27:42.650Z,8.83
2018-05-11T13:30:11.126Z,8.77
2018-05-11T13:32:39.410Z,8.40
2018-05-11T13:35:07.879Z,8.40
2018-05-11T13:37:36.165Z,12.60
2018-05-11T13:40:04.451Z,9.97
2018-05-11T13:42:32.722Z,10.77
2018-05-11T13:45:01.005Z,12.63
2018-05-11T13:47:29.282Z,12.07
2018-05-11T13:49:57.578Z,13.63
2018-05-11T13:52:25.960Z,11.27
2018-05-11T13:54:54.221Z,11.17
2018-05-11T13:57:22.555Z,11.63
2018-05-11T13:59:50.888Z,12.27
2018-05-11T14:02:19.175Z,11.37
2018-05-11T14:04:47.528Z,10.83
2018-05-11T14:07:15.894Z,10.90
2018-05-11T14:09:44.215Z,14.00
2018-05-11T14:12:13.253Z,12.27
2018-05-11T14:14:41.665Z,11.53
2018-05-11T14:17:09.958Z,13.00
2018-05-11T14:19:38.419Z,13.30
2018-05-11T14:22:06.703Z,13.53
2018-05-11T14:24:35.751Z,14.00
2018-05-11T14:27:04.159Z,10.73
2018-05-11T14:29:32.456Z,12.37
2018-05-11T14:32:00.957Z,10.80
2018-05-11T14:34:29.298Z,12.53
2018-05-11T14:36:57.567Z,11.60
2018-05-11T14:39:25.843Z,11.23
2018-05-11T14:41:54.115Z,10.40
2018-05-11T14:44:22.389Z,12.67
2018-05-11T14:46:50.664Z,13.17
2018-05-11T14:49:18.980Z,12.73
2018-05-11T14:51:48.110Z,11.50
2018-05-11T14:54:16.395Z,13.10
2018-05-11T14:56:44.711Z,12.13
2018-05-11T14:59:12.983Z,11.43
2018-05-11T15:01:41.473Z,11.83
2018-05-11T15:04:09.792Z,13.03
2018-05-11T15:06:38.851Z,10.73
2018-05-11T15:09:07.230Z,10.47
2018-05-11T15:11:35.494Z,9.90
2018-05-11T15:14:03.774Z,9.50
2018-05-11T15:16:32.059Z,10.07
2018-05-11T15:19:00.426Z,9.83
2018-05-11T15:21:28.692Z,9.60
2018-05-11T15:23:56.966Z,9.47
2018-05-11T15:26:25.244Z,8.83
2018-05-11T15:28:54.058Z,8.70
2018-05-11T15:31:22.318Z,9.10
2018-05-11T15:33:50.698Z,10.47
2018-05-11T15:36:18.995Z,9.63
2018-05-11T15:38:47.252Z,9.10
2018-05-11T15:41:16.306Z,9.63
2018-05-11T15:43:45.793Z,8.83
2018-05-11T15:46:14.156Z,9.10
2018-05-11T15:48:42.425Z,8.60
2018-05-11T15:51:10.887Z,8.87
2018-05-11T15:53:39.290Z,8.70
2018-05-11T15:56:07.555Z,8.40
2018-05-11T15:58:36.055Z,8.73
2018-05-11T16:01:04.306Z,8.80
2018-05-11T16:03:32.809Z,9.10
2018-05-11T16:06:01.094Z,8.97
2018-05-11T16:08:29.590Z,7.80
2018-05-11T16:10:57.850Z,8.67
2018-05-11T16:13:26.112Z,8.97
2018-05-11T16:15:54.384Z,9.10
2018-05-11T16:18:22.768Z,9.57
2018-05-11T16:20:51.072Z,9.20
2018-05-11T16:23:19.515Z,8.87
2018-05-11T16:25:47.801Z,9.17
2018-05-11T16:28:16.316Z,8.03
2018-05-11T16:30:44.568Z,8.33
2018-05-11T16:33:13.045Z,8.27
2018-05-11T16:35:41.442Z,8.70
2018-05-11T16:38:09.685Z,8.70
2018-05-11T16:40:38.032Z,7.70
2018-05-11T16:43:06.221Z,8.50
2018-05-11T16:45:34.511Z,10.00
2018-05-11T16:48:02.998Z,8.63
2018-05-11T16:50:31.266Z,8.77
2018-05-11T16:53:04.171Z,8.53
2018-05-11T16:55:38.707Z,8.40
2018-05-11T16:58:12.138Z,15.87
2018-05-11T17:00:41.596Z,22.13
2018-05-11T17:03:09.868Z,28.30
2018-05-11T17:05:38.158Z,30.57
2018-05-11T17:08:08.209Z,37.77
2018-05-11T17:10:36.567Z,44.10
2018-05-11T17:13:04.860Z,52.40
2018-05-11T17:15:33.143Z,45.87
2018-05-11T17:18:01.435Z,44.93
2018-05-11T17:20:29.740Z,43.37
2018-05-11T17:22:58.019Z,44.97
2018-05-11T17:25:26.299Z,43.97
2018-05-11T17:27:54.579Z,45.13
2018-05-11T17:30:22.856Z,48.03
2018-05-11T17:32:51.159Z,51.67
2018-05-11T17:35:19.434Z,54.13
2018-05-11T17:37:47.703Z,54.33
2018-05-11T17:40:16.238Z,54.20
2018-05-11T17:42:44.547Z,56.80
2018-05-11T17:45:12.959Z,56.33
2018-05-11T17:47:41.249Z,52.27
2018-05-11T17:50:09.682Z,52.13
2018-05-11T17:52:38.061Z,53.43
2018-05-11T17:55:06.353Z,52.03
2018-05-11T17:57:34.639Z,50.20
2018-05-11T18:00:03.310Z,52.93
2018-05-11T18:02:31.731Z,49.63
2018-05-11T18:05:00.016Z,46.47
2018-05-11T18:07:28.291Z,48.10
2018-05-11T18:09:56.576Z,42.87
2018-05-11T18:12:24.856Z,38.67
2018-05-11T18:14:53.130Z,42.07
2018-05-11T18:17:21.411Z,38.43
2018-05-11T18:19:49.688Z,35.80
2018-05-11T18:22:17.958Z,36.13
2018-05-11T18:24:46.256Z,33.07
2018-05-11T18:27:14.526Z,33.03
2018-05-11T18:29:42.821Z,33.97
2018-05-11T18:32:11.100Z,29.40
2018-05-11T18:34:39.603Z,29.63
2018-05-11T18:37:07.884Z,30.00
2018-05-11T18:39:36.997Z,24.67
2018-05-11T18:42:05.238Z,24.93
2018-05-11T18:44:33.708Z,27.87
2018-05-11T18:47:02.032Z,27.43
2018-05-11T18:49:30.271Z,27.60
2018-05-11T18:51:58.534Z,23.00
2018-05-11T18:54:27.148Z,26.70
2018-05-11T18:56:55.142Z,24.57
2018-05-11T18:59:23.408Z,20.53
2018-05-11T19:01:51.715Z,20.53
2018-05-11T19:04:19.999Z,21.87
2018-05-11T19:06:48.515Z,19.83
2018-05-11T19:09:16.811Z,18.17
2018-05-11T19:11:45.282Z,17.30
2018-05-11T19:14:13.562Z,16.13
2018-05-11T19:16:41.857Z,15.47
2018-05-11T19:19:10.176Z,13.10
2018-05-11T19:21:38.476Z,13.20
2018-05-11T19:24:06.755Z,13.03
2018-05-11T19:26:35.226Z,12.00
2018-05-11T19:29:03.498Z,12.43
2018-05-11T19:31:31.994Z,11.70
2018-05-11T19:34:00.281Z,11.03
2018-05-11T19:36:28.746Z,11.33
2018-05-11T19:38:57.042Z,10.70
2018-05-11T19:41:25.521Z,10.27
2018-05-11T19:43:53.798Z,11.07
2018-05-11T19:46:22.282Z,9.90
2018-05-11T19:48:50.563Z,9.50
2018-05-11T19:51:18.838Z,9.50
2018-05-11T19:53:47.118Z,9.30
2018-05-11T19:56:15.433Z,9.83
2018-05-11T19:58:43.733Z,9.10
2018-05-11T20:01:11.999Z,8.47
2018-05-11T20:03:40.275Z,8.30
2018-05-11T20:06:09.240Z,9.40
2018-05-11T20:08:37.712Z,8.63
2018-05-11T20:11:05.988Z,7.77
2018-05-11T20:13:35.051Z,7.47
2018-05-11T20:16:03.469Z,7.73
2018-05-11T20:18:32.502Z,8.60
2018-05-11T20:21:00.794Z,7.77
2018-05-11T20:23:29.187Z,7.83
2018-05-11T20:25:57.468Z,7.20
2018-05-11T20:28:25.752Z,8.43
2018-05-11T20:30:54.016Z,7.70
2018-05-11T20:33:22.507Z,7.17
2018-05-11T20:35:50.894Z,7.30
2018-05-11T20:38:19.164Z,6.87
2018-05-11T20:40:47.425Z,6.30
2018-05-11T20:43:15.736Z,6.87
2018-05-11T20:45:43.993Z,7.43
2018-05-11T20:48:12.263Z,7.43
2018-05-11T20:50:40.528Z,7.13
2018-05-11T20:53:08.821Z,6.30
2018-05-11T20:55:37.085Z,6.43
2018-05-11T20:58:05.350Z,7.10
2018-05-11T21:00:33.634Z,6.63
2018-05-11T21:03:01.903Z,7.27
2018-05-11T21:05:30.184Z,8.27
2018-05-11T21:07:58.455Z,8.00
2018-05-11T21:10:26.729Z,7.97
2018-05-11T21:12:54.982Z,7.37
2018-05-11T21:15:23.336Z,7.57
2018-05-11T21:17:51.598Z,7.30
2018-05-11T21:20:19.917Z,7.97
2018-05-11T21:22:52.811Z,7.60
2018-05-11T21:25:21.117Z,8.10
2018-05-11T21:27:49.370Z,7.10
2018-05-11T21:30:17.869Z,7.37
2018-05-11T21:32:46.130Z,7.27
2018-05-11T21:35:14.422Z,7.77
2018-05-11T21:37:42.719Z,7.83
2018-05-11T21:40:11.000Z,6.97
2018-05-11T21:42:39.266Z,7.53
2018-05-11T21:45:07.539Z,8.77
2018-05-11T21:47:35.825Z,7.57
2018-05-11T21:50:04.094Z,7.63
2018-05-11T21:52:32.411Z,8.60
2018-05-11T21:55:02.249Z,8.90
2018-05-11T21:57:30.534Z,9.17
2018-05-11T21:59:58.850Z,8.20
2018-05-11T22:02:27.100Z,7.93
2018-05-11T22:04:55.366Z,8.50
2018-05-11T22:07:23.635Z,8.03
2018-05-11T22:09:51.993Z,8.37
2018-05-11T22:12:20.301Z,8.27
2018-05-11T22:14:57.751Z,9.40
2018-05-11T22:17:38.765Z,8.27
2018-05-11T22:20:09.352Z,8.50
2018-05-11T22:22:41.721Z,8.57
2018-05-11T22:25:11.702Z,9.50
2018-05-11T22:27:39.965Z,9.53
2018-05-11T22:30:08.236Z,8.60
2018-05-11T22:32:36.653Z,9.00
2018-05-11T22:35:04.994Z,8.80
2018-05-11T22:37:33.209Z,8.23
2018-05-11T22:40:01.613Z,9.27
2018-05-11T22:42:30.663Z,8.93
2018-05-11T22:44:58.952Z,8.20
2018-05-11T22:47:27.231Z,8.57
2018-05-11T22:49:55.522Z,8.90
2018-05-11T22:52:23.900Z,8.50
2018-05-11T22:54:52.383Z,9.03
2018-05-11T22:57:20.647Z,8.67
2018-05-11T22:59:48.929Z,8.00
2018-05-11T23:02:17.203Z,8.57
2018-05-11T23:04:45.473Z,8.80
2018-05-11T23:07:13.749Z,8.03
2018-05-11T23:09:42.340Z,8.83
2018-05-11T23:12:10.591Z,7.63
2018-05-11T23:14:38.855Z,8.30
2018-05-11T23:17:07.126Z,8.57
2018-05-11T23:19:35.433Z,8.40
2018-05-11T23:22:03.693Z,8.13
2018-05-11T23:24:32.213Z,7.93
2018-05-11T23:27:00.563Z,8.53
2018-05-11T23:29:28.839Z,8.80
2018-05-11T23:31:57.120Z,7.90
2018-05-11T23:34:25.468Z,8.80
2018-05-11T23:36:53.714Z,8.60
2018-05-11T23:39:22.145Z,8.53
2018-05-11T23:41:50.450Z,8.63
2018-05-11T23:44:18.758Z,8.60
2018-05-11T23:46:47.020Z,8.87
2018-05-11T23:49:15.307Z,8.33
2018-05-11T23:51:44.342Z,9.47
2018-05-11T23:54:12.608Z,9.10
2018-05-11T23:56:40.900Z,8.77
2018-05-11T23:59:09.168Z,8.73
